createdAt,value
2023-05-14T00:01:00.326Z,23.76
2023-05-14T00:03:31.928Z,23.82
2023-05-14T00:06:00.914Z,23.92
2023-05-14T00:08:31.806Z,23.94
2023-05-14T00:11:03.225Z,23.85
2023-05-14T00:16:33.161Z,23.53
2023-05-14T00:19:32.526Z,23.39
2023-05-14T00:22:03.631Z,23.47
2023-05-14T00:24:31.961Z,23.55
2023-05-14T00:27:03.108Z,23.57
2023-05-14T00:29:37.970Z,23.66
2023-05-14T00:32:32.045Z,23.66
2023-05-14T00:35:17.873Z,23.74
2023-05-14T00:37:46.411Z,23.64
2023-05-14T00:40:37.455Z,23.53
2023-05-14T00:52:00.812Z,23.41
2023-05-14T00:54:35.979Z,23.38
2023-05-14T00:57:08.161Z,23.30
2023-05-14T00:59:36.858Z,23.25
2023-05-14T01:02:05.223Z,23.20
2023-05-14T01:04:36.193Z,23.22
2023-05-14T01:07:38.061Z,23.25
2023-05-14T01:10:37.063Z,23.28
2023-05-14T01:13:40.285Z,23.37
2023-05-14T01:23:48.826Z,23.45
2023-05-14T01:26:37.913Z,23.52
2023-05-14T01:29:39.074Z,23.53
2023-05-14T01:32:24.470Z,23.58
2023-05-14T01:34:54.657Z,23.57
2023-05-14T01:37:41.290Z,23.58
2023-05-14T01:46:40.638Z,23.56
2023-05-14T01:52:42.482Z,23.39
2023-05-14T01:55:15.321Z,23.33
2023-05-14T01:57:44.201Z,23.31
2023-05-14T02:00:41.949Z,23.24
2023-05-14T02:06:10.439Z,23.15
2023-05-14T02:08:44.235Z,23.13
2023-05-14T02:14:40.536Z,23.01
2023-05-14T02:17:11.656Z,22.91
2023-05-14T02:19:43.309Z,22.84
2023-05-14T02:22:11.635Z,22.79
2023-05-14T02:24:42.032Z,22.74
2023-05-14T02:27:14.272Z,22.67
2023-05-14T02:29:43.059Z,22.59
2023-05-14T02:35:43.677Z,22.43
2023-05-14T02:38:12.870Z,22.29
2023-05-14T02:40:44.255Z,22.17
2023-05-14T02:43:14.280Z,22.10
2023-05-14T02:45:45.730Z,22.05
2023-05-14T02:48:14.200Z,22.02
2023-05-14T02:50:45.683Z,22.01
2023-05-14T02:53:13.962Z,21.93
2023-05-14T02:55:46.019Z,21.89
2023-05-14T02:58:14.317Z,21.83
2023-05-14T03:00:45.909Z,21.79
2023-05-14T03:03:15.039Z,21.74
2023-05-14T03:05:46.950Z,21.67
2023-05-14T03:08:15.447Z,21.61
2023-05-14T03:10:47.226Z,21.57
2023-05-14T03:24:46.938Z,21.41
2023-05-14T03:27:22.365Z,21.35
2023-05-14T03:29:51.442Z,21.28
2023-05-14T03:32:20.198Z,21.20
2023-05-14T03:34:48.620Z,21.15
2023-05-14T03:37:47.274Z,21.09
2023-05-14T03:40:48.995Z,21.01
2023-05-14T03:43:20.330Z,20.94
2023-05-14T03:45:53.130Z,20.88
2023-05-14T03:48:47.839Z,20.85
2023-05-14T03:54:33.505Z,20.75
2023-05-14T03:57:49.283Z,20.70
2023-05-14T04:00:25.790Z,20.60
2023-05-14T04:02:54.542Z,20.55
2023-05-14T04:05:23.027Z,20.47
2023-05-14T04:07:53.363Z,20.41
2023-05-14T04:10:26.223Z,20.38
2023-05-14T04:12:56.032Z,20.34
2023-05-14T04:15:50.683Z,20.32
2023-05-14T04:18:36.413Z,20.25
2023-05-14T04:21:49.589Z,20.22
2023-05-14T04:24:21.086Z,20.19
2023-05-14T04:26:51.568Z,20.16
2023-05-14T04:29:22.743Z,20.16
2023-05-14T04:31:54.843Z,20.14
2023-05-14T04:34:29.063Z,20.10
2023-05-14T04:36:57.513Z,20.10
2023-05-14T04:39:52.749Z,20.09
2023-05-14T04:42:21.065Z,20.09
2023-05-14T04:44:52.247Z,20.07
2023-05-14T04:47:44.930Z,20.04
2023-05-14T04:50:37.340Z,20.04
2023-05-14T04:53:07.823Z,20.01
2023-05-14T04:55:52.826Z,20.02
2023-05-14T04:58:24.931Z,20.00
2023-05-14T05:00:53.766Z,19.97
2023-05-14T05:03:24.599Z,19.93
2023-05-14T05:05:55.961Z,19.89
2023-05-14T05:08:24.311Z,19.84
2023-05-14T05:10:54.847Z,19.76
2023-05-14T05:13:25.993Z,19.72
2023-05-14T05:16:26.445Z,19.65
2023-05-14T05:18:54.941Z,19.56
2023-05-14T05:21:28.223Z,19.47
2023-05-14T05:23:56.811Z,19.41
2023-05-14T05:26:30.092Z,19.38
2023-05-14T05:28:58.405Z,19.34
2023-05-14T05:31:26.920Z,19.30
2023-05-14T05:33:55.217Z,19.26
2023-05-14T05:36:26.067Z,19.20
2023-05-14T05:38:54.953Z,19.15
2023-05-14T05:41:27.401Z,19.11
2023-05-14T05:43:56.759Z,19.09
2023-05-14T05:46:25.151Z,19.07
2023-05-14T05:48:56.412Z,19.03
2023-05-14T05:51:28.155Z,18.99
2023-05-14T05:53:56.748Z,18.92
2023-05-14T05:56:28.151Z,18.86
2023-05-14T05:58:56.413Z,18.80
2023-05-14T06:01:24.920Z,18.74
2023-05-14T06:03:58.402Z,18.68
2023-05-14T06:06:27.923Z,18.58
2023-05-14T06:08:56.172Z,18.54
2023-05-14T06:11:27.523Z,18.49
2023-05-14T06:13:58.684Z,18.41
2023-05-14T06:16:28.886Z,18.31
2023-05-14T06:19:00.060Z,18.26
2023-05-14T06:21:28.363Z,18.25
2023-05-14T06:23:57.103Z,18.23
2023-05-14T06:26:28.337Z,18.19
2023-05-14T06:28:59.052Z,18.18
2023-05-14T06:31:27.437Z,18.13
2023-05-14T06:33:58.617Z,18.09
2023-05-14T06:36:28.816Z,18.00
2023-05-14T06:38:57.232Z,17.97
2023-05-14T06:41:42.182Z,17.97
2023-05-14T06:44:10.475Z,17.93
2023-05-14T06:46:45.660Z,17.92
2023-05-14T06:49:17.377Z,17.90
2023-05-14T06:52:00.066Z,17.90
2023-05-14T06:54:28.353Z,17.90
2023-05-14T06:56:59.509Z,17.90
2023-05-14T06:59:30.366Z,17.85
2023-05-14T07:02:02.237Z,17.82
2023-05-14T07:04:30.593Z,17.75
2023-05-14T07:07:01.432Z,17.71
2023-05-14T07:09:29.894Z,17.67
2023-05-14T07:12:00.751Z,17.65
2023-05-14T07:14:29.761Z,17.60
2023-05-14T07:17:01.867Z,17.55
2023-05-14T07:19:33.452Z,17.49
2023-05-14T07:22:02.150Z,17.42
2023-05-14T07:24:33.653Z,17.34
2023-05-14T07:27:02.740Z,17.29
2023-05-14T07:29:31.690Z,17.29
2023-05-14T07:32:03.214Z,17.30
2023-05-14T07:34:31.483Z,17.29
2023-05-14T07:37:02.792Z,17.26
2023-05-14T07:39:31.343Z,17.16
2023-05-14T07:41:59.993Z,17.11
2023-05-14T07:44:31.777Z,17.12
2023-05-14T07:47:05.090Z,17.09
2023-05-14T07:49:33.417Z,17.03
2023-05-14T07:52:01.781Z,17.02
2023-05-14T07:54:32.481Z,17.01
2023-05-14T07:57:03.774Z,16.95
2023-05-14T07:59:32.172Z,16.85
2023-05-14T08:02:03.741Z,16.82
2023-05-14T08:04:32.280Z,16.81
2023-05-14T08:07:04.300Z,16.78
2023-05-14T08:09:33.509Z,16.77
2023-05-14T08:12:04.808Z,16.76
2023-05-14T08:14:34.089Z,16.70
2023-05-14T08:17:05.883Z,16.65
2023-05-14T08:19:34.612Z,16.64
2023-05-14T08:22:05.903Z,16.62
2023-05-14T08:24:33.870Z,16.54
2023-05-14T08:27:05.271Z,16.48
2023-05-14T08:29:36.989Z,16.44
2023-05-14T08:32:19.322Z,16.39
2023-05-14T08:34:50.850Z,16.31
2023-05-14T08:37:28.648Z,16.25
2023-05-14T08:40:05.420Z,16.24
2023-05-14T08:42:34.049Z,16.21
2023-05-14T08:45:10.464Z,16.20
2023-05-14T08:47:39.167Z,16.13
2023-05-14T08:50:09.082Z,16.10
2023-05-14T08:52:37.428Z,16.07
2023-05-14T08:55:07.727Z,16.04
2023-05-14T08:57:36.670Z,16.00
2023-05-14T09:00:09.543Z,15.96
2023-05-14T09:02:38.604Z,15.92
2023-05-14T09:05:10.798Z,15.89
2023-05-14T09:07:44.909Z,15.88
2023-05-14T09:10:16.278Z,15.83
2023-05-14T09:12:47.057Z,15.81
2023-05-14T09:15:15.507Z,15.82
2023-05-14T09:17:46.766Z,15.81
2023-05-14T09:20:15.939Z,15.76
2023-05-14T09:22:47.624Z,15.73
2023-05-14T09:25:15.936Z,15.71
2023-05-14T09:27:50.710Z,15.65
2023-05-14T09:30:20.085Z,15.63
2023-05-14T09:32:51.488Z,15.64
2023-05-14T09:35:26.571Z,15.67
2023-05-14T09:37:56.483Z,15.68
2023-05-14T09:40:28.570Z,15.65
2023-05-14T09:42:59.668Z,15.62
2023-05-14T09:45:31.193Z,15.61
2023-05-14T09:48:03.067Z,15.58
2023-05-14T09:50:31.561Z,15.54
2023-05-14T09:53:04.688Z,15.50
2023-05-14T09:55:33.413Z,15.51
2023-05-14T09:58:04.465Z,15.51
2023-05-14T10:00:39.174Z,15.55
2023-05-14T10:03:08.924Z,15.55
2023-05-14T10:05:38.275Z,15.52
2023-05-14T10:08:16.117Z,15.49
2023-05-14T10:10:44.638Z,15.48
2023-05-14T10:13:18.760Z,15.46
2023-05-14T10:16:23.614Z,15.42
2023-05-14T10:21:22.846Z,15.32
2023-05-14T10:23:54.658Z,15.30
2023-05-14T10:26:24.162Z,15.34
2023-05-14T10:28:56.826Z,15.33
2023-05-14T10:31:48.606Z,15.32
2023-05-14T10:34:39.402Z,15.32
2023-05-14T10:37:31.786Z,15.29
2023-05-14T10:40:03.081Z,15.24
2023-05-14T10:42:36.771Z,15.17
2023-05-14T10:45:16.125Z,15.18
2023-05-14T10:47:47.895Z,15.18
2023-05-14T10:50:17.221Z,15.22
2023-05-14T10:52:47.178Z,15.24
2023-05-14T10:55:17.895Z,15.18
2023-05-14T10:57:52.231Z,15.16
2023-05-14T11:00:22.383Z,15.15
2023-05-14T11:02:56.718Z,15.12
2023-05-14T11:05:28.726Z,15.11
2023-05-14T11:08:03.260Z,15.10
2023-05-14T11:10:32.843Z,15.05
2023-05-14T11:13:04.587Z,14.99
2023-05-14T11:15:34.410Z,14.94
2023-05-14T11:18:06.553Z,14.88
2023-05-14T11:20:40.610Z,14.82
2023-05-14T11:23:09.775Z,14.74
2023-05-14T11:25:38.480Z,14.72
2023-05-14T11:28:09.834Z,14.70
2023-05-14T11:30:40.616Z,14.66
2023-05-14T11:33:09.106Z,14.67
2023-05-14T11:35:37.912Z,14.69
2023-05-14T11:38:07.974Z,14.74
2023-05-14T11:40:37.427Z,14.76
2023-05-14T11:43:06.210Z,14.75
2023-05-14T11:45:37.376Z,14.71
2023-05-14T11:48:15.872Z,14.65
2023-05-14T11:50:51.843Z,14.59
2023-05-14T11:53:31.740Z,14.57
2023-05-14T11:56:04.104Z,14.52
2023-05-14T11:58:38.269Z,14.48
2023-05-14T12:01:14.416Z,14.49
2023-05-14T12:03:43.222Z,14.48
2023-05-14T12:06:11.725Z,14.47
2023-05-14T12:08:40.025Z,14.46
2023-05-14T12:11:13.544Z,14.48
2023-05-14T12:13:42.040Z,14.47
2023-05-14T12:16:10.516Z,14.48
2023-05-14T12:18:44.662Z,14.48
2023-05-14T12:21:13.103Z,14.48
2023-05-14T12:23:41.538Z,14.45
2023-05-14T12:26:13.484Z,14.42
2023-05-14T12:28:51.492Z,14.40
2023-05-14T12:31:19.816Z,14.37
2023-05-14T12:33:48.245Z,14.34
2023-05-14T12:36:21.783Z,14.34
2023-05-14T12:39:01.545Z,14.35
2023-05-14T12:41:32.323Z,14.32
2023-05-14T12:44:06.018Z,14.31
2023-05-14T12:46:35.224Z,14.28
2023-05-14T12:49:07.715Z,14.25
2023-05-14T12:51:41.193Z,14.24
2023-05-14T12:54:11.833Z,14.23
2023-05-14T12:56:40.798Z,14.25
2023-05-14T12:59:10.364Z,14.28
2023-05-14T13:01:39.281Z,14.34
2023-05-14T13:04:07.842Z,14.36
2023-05-14T13:06:42.047Z,14.33
2023-05-14T13:09:10.428Z,14.32
2023-05-14T13:11:41.333Z,14.35
2023-05-14T13:14:09.831Z,14.36
2023-05-14T13:16:38.265Z,14.39
2023-05-14T13:19:07.043Z,14.38
2023-05-14T13:21:35.448Z,14.40
2023-05-14T13:24:08.321Z,14.38
2023-05-14T13:26:45.906Z,14.31
2023-05-14T13:29:14.385Z,14.21
2023-05-14T13:31:42.647Z,14.20
2023-05-14T13:34:14.096Z,14.25
2023-05-14T13:37:06.328Z,14.53
2023-05-14T13:39:46.379Z,14.79
2023-05-14T13:42:17.066Z,14.91
2023-05-14T13:44:45.372Z,14.99
2023-05-14T13:47:16.651Z,15.03
2023-05-14T13:49:47.659Z,15.04
2023-05-14T13:52:16.028Z,15.08
2023-05-14T13:54:47.169Z,15.13
2023-05-14T13:57:18.710Z,15.20
2023-05-14T13:59:52.489Z,15.23
2023-05-14T14:02:20.874Z,15.17
2023-05-14T14:04:50.231Z,15.11
2023-05-14T14:07:18.678Z,15.07
2023-05-14T14:09:50.315Z,15.11
2023-05-14T14:12:18.930Z,15.13
2023-05-14T14:14:47.865Z,15.11
2023-05-14T14:17:20.912Z,15.04
2023-05-14T14:19:55.744Z,15.02
2023-05-14T14:22:27.178Z,14.94
2023-05-14T14:24:57.295Z,14.84
2023-05-14T14:27:27.201Z,14.78
2023-05-14T14:29:57.854Z,14.77
2023-05-14T14:32:34.714Z,14.75
2023-05-14T14:35:04.718Z,14.72
2023-05-14T14:37:41.240Z,14.67
2023-05-14T14:40:15.134Z,14.58
2023-05-14T14:42:50.062Z,14.51
2023-05-14T14:45:48.919Z,14.44
2023-05-14T14:48:45.937Z,14.35
2023-05-14T14:51:36.675Z,14.36
2023-05-14T14:54:13.980Z,14.37
2023-05-14T14:59:18.253Z,14.38
2023-05-14T15:04:51.172Z,14.38
2023-05-14T15:07:21.136Z,14.36
2023-05-14T15:09:52.868Z,14.38
2023-05-14T15:12:21.385Z,14.42
2023-05-14T15:14:49.778Z,14.44
2023-05-14T15:17:18.308Z,14.40
2023-05-14T15:19:46.624Z,14.42
2023-05-14T15:22:14.939Z,14.47
2023-05-14T15:24:43.436Z,14.50
2023-05-14T15:27:12.528Z,14.53
2023-05-14T15:29:44.058Z,14.55
2023-05-14T15:32:18.503Z,14.56
2023-05-14T15:34:47.578Z,14.57
2023-05-14T15:37:15.785Z,14.60
2023-05-14T15:39:48.169Z,14.65
2023-05-14T15:42:19.786Z,14.73
2023-05-14T15:44:48.113Z,14.77
2023-05-14T15:47:19.073Z,14.76
2023-05-14T15:49:49.757Z,14.77
2023-05-14T15:52:18.039Z,14.80
2023-05-14T15:54:49.463Z,14.85
2023-05-14T15:57:19.868Z,14.91
2023-05-14T15:59:48.863Z,14.95
2023-05-14T16:02:17.711Z,14.92
2023-05-14T16:04:50.339Z,14.93
2023-05-14T16:07:19.074Z,15.04
2023-05-14T16:09:47.333Z,15.09
2023-05-14T16:12:15.640Z,15.14
2023-05-14T16:14:45.989Z,15.15
2023-05-14T16:17:14.487Z,15.16
2023-05-14T16:19:42.773Z,15.17
2023-05-14T16:22:11.209Z,15.17
2023-05-14T16:24:39.593Z,15.17
2023-05-14T16:27:08.502Z,15.20
2023-05-14T16:29:45.430Z,15.22
2023-05-14T16:32:20.248Z,15.29
2023-05-14T16:34:52.684Z,15.36
2023-05-14T16:37:21.468Z,15.41
2023-05-14T16:39:50.951Z,15.49
2023-05-14T16:42:22.127Z,15.52
2023-05-14T16:44:50.466Z,15.60
2023-05-14T16:47:23.082Z,15.72
2023-05-14T16:52:22.061Z,15.86
2023-05-14T16:54:55.380Z,15.95
2023-05-14T16:57:23.874Z,15.98
2023-05-14T17:00:22.893Z,16.03
2023-05-14T17:02:53.458Z,16.12
2023-05-14T17:05:22.320Z,16.20
2023-05-14T17:07:53.887Z,16.23
2023-05-14T17:10:22.186Z,16.32
2023-05-14T17:12:52.097Z,16.36
2023-05-14T17:15:23.824Z,16.34
2023-05-14T17:17:52.406Z,16.43
2023-05-14T17:20:50.754Z,16.51
2023-05-14T17:23:25.985Z,16.58
2023-05-14T17:26:50.409Z,16.73
2023-05-14T17:29:18.701Z,16.81
2023-05-14T17:31:53.891Z,16.87
2023-05-14T17:34:22.401Z,16.86
2023-05-14T17:36:54.034Z,16.81
2023-05-14T17:39:22.374Z,16.77
2023-05-14T17:42:21.250Z,16.65
2023-05-14T17:45:19.689Z,16.70
2023-05-14T17:47:50.103Z,16.66
2023-05-14T17:50:19.434Z,16.69
2023-05-14T17:53:08.940Z,16.73
2023-05-14T17:55:49.008Z,16.77
2023-05-14T17:58:24.745Z,16.71
2023-05-14T18:00:53.150Z,16.71
2023-05-14T18:03:23.172Z,16.70
2023-05-14T18:05:54.603Z,16.74
2023-05-14T18:08:23.388Z,16.74
2023-05-14T18:10:52.879Z,16.74
2023-05-14T18:13:21.216Z,16.76
2023-05-14T18:15:57.238Z,16.81
2023-05-14T18:18:25.837Z,16.85
2023-05-14T18:20:54.554Z,16.94
2023-05-14T18:23:22.951Z,16.98
2023-05-14T18:25:54.126Z,16.97
2023-05-14T18:28:23.104Z,16.85
2023-05-14T18:30:54.397Z,16.87
2023-05-14T18:33:25.386Z,16.95
2023-05-14T18:35:54.366Z,17.02
2023-05-14T18:38:23.830Z,17.09
2023-05-14T18:40:55.081Z,17.07
2023-05-14T18:43:27.068Z,17.09
2023-05-14T18:45:55.444Z,17.21
2023-05-14T18:48:24.306Z,17.34
2023-05-14T18:50:55.127Z,17.50
2023-05-14T18:53:24.808Z,17.60
2023-05-14T18:55:56.889Z,17.69
2023-05-14T18:58:25.223Z,17.77
2023-05-14T19:00:58.663Z,17.86
2023-05-14T19:03:27.131Z,17.94
2023-05-14T19:05:55.708Z,18.03
2023-05-14T19:08:24.003Z,18.06
2023-05-14T19:10:55.328Z,18.12
2023-05-14T19:13:26.547Z,18.16
2023-05-14T19:15:57.730Z,18.23
2023-05-14T19:18:25.605Z,18.27
2023-05-14T19:20:54.019Z,18.27
2023-05-14T19:23:24.802Z,18.31
2023-05-14T19:25:56.103Z,18.35
2023-05-14T19:28:27.561Z,18.39
2023-05-14T19:30:57.947Z,18.44
2023-05-14T19:33:26.979Z,18.51
2023-05-14T19:35:56.705Z,18.57
2023-05-14T19:38:28.127Z,18.54
2023-05-14T19:40:57.871Z,18.58
2023-05-14T19:43:26.975Z,18.55
2023-05-14T19:45:56.866Z,18.59
2023-05-14T19:48:28.021Z,18.62
2023-05-14T19:50:59.642Z,18.61
2023-05-14T19:53:30.491Z,18.67
2023-05-14T19:55:59.354Z,18.77
2023-05-14T19:58:27.890Z,18.82
2023-05-14T20:00:59.452Z,18.88
2023-05-14T20:03:27.985Z,18.89
2023-05-14T20:05:57.138Z,18.88
2023-05-14T20:08:29.805Z,18.90
2023-05-14T20:10:58.198Z,18.91
2023-05-14T20:13:28.802Z,18.86
2023-05-14T20:15:57.188Z,18.81
2023-05-14T20:18:28.585Z,18.77
2023-05-14T20:21:00.081Z,18.85
2023-05-14T20:23:28.953Z,18.77
2023-05-14T20:25:57.466Z,18.75
2023-05-14T20:28:28.730Z,18.77
2023-05-14T20:31:01.108Z,18.81
2023-05-14T20:33:29.996Z,18.84
2023-05-14T20:36:00.549Z,18.80
2023-05-14T20:38:30.207Z,18.85
2023-05-14T20:41:24.211Z,18.88
2023-05-14T20:43:52.508Z,18.85
2023-05-14T20:46:30.357Z,18.81
2023-05-14T20:49:28.854Z,18.79
2023-05-14T20:53:45.460Z,18.79
2023-05-14T20:55:32.086Z,18.59
2023-05-14T20:58:01.139Z,18.52
2023-05-14T21:00:29.411Z,18.34
2023-05-14T21:03:01.104Z,18.10
2023-05-14T21:05:29.806Z,18.07
2023-05-14T21:08:00.897Z,17.95
2023-05-14T21:10:29.390Z,17.81
2023-05-14T21:13:00.839Z,17.74
2023-05-14T21:15:32.179Z,17.66
2023-05-14T21:18:00.553Z,17.63
2023-05-14T21:20:28.813Z,17.60
2023-05-14T21:23:20.080Z,17.49
2023-05-14T21:26:33.694Z,17.50
2023-05-14T21:32:32.416Z,17.61
2023-05-14T21:35:00.781Z,17.65
2023-05-14T21:37:32.253Z,17.72
2023-05-14T21:43:30.579Z,17.69
2023-05-14T21:46:00.931Z,17.76
2023-05-14T21:48:32.310Z,17.84
2023-05-14T21:51:02.370Z,17.92
2023-05-14T21:53:30.614Z,17.99
2023-05-14T21:56:01.931Z,18.03
2023-05-14T21:58:33.917Z,18.03
2023-05-14T22:01:02.412Z,18.01
2023-05-14T22:03:32.519Z,17.99
2023-05-14T22:06:03.754Z,17.98
2023-05-14T22:08:33.036Z,17.97
2023-05-14T22:11:31.431Z,17.95
2023-05-14T22:14:33.093Z,17.97
2023-05-14T22:17:35.192Z,17.88
2023-05-14T22:24:06.333Z,17.76
2023-05-14T22:26:53.704Z,17.68
2023-05-14T22:29:38.263Z,17.53
2023-05-14T22:32:32.650Z,17.53
2023-05-14T22:35:37.604Z,17.56
2023-05-14T22:41:19.150Z,17.36
2023-05-14T22:44:34.152Z,17.32
2023-05-14T22:47:34.878Z,17.18
2023-05-14T22:55:44.266Z,16.97
2023-05-14T23:02:35.292Z,16.85
2023-05-14T23:05:03.756Z,16.97
2023-05-14T23:07:34.408Z,17.02
2023-05-14T23:10:23.329Z,17.11
2023-05-14T23:13:32.662Z,17.21
2023-05-14T23:16:03.791Z,17.27
2023-05-14T23:18:35.595Z,17.28
2023-05-14T23:21:04.072Z,17.33
2023-05-14T23:23:37.579Z,17.35
2023-05-14T23:26:06.150Z,17.42
2023-05-14T23:28:34.722Z,17.47
2023-05-14T23:31:05.455Z,17.51
2023-05-14T23:33:37.235Z,17.55
2023-05-14T23:36:11.395Z,17.59
2023-05-14T23:38:40.310Z,17.64
2023-05-14T23:47:09.712Z,17.59
2023-05-14T23:49:38.353Z,17.57
2023-05-14T23:52:07.037Z,17.58
2023-05-14T23:54:41.438Z,17.56
